Strona główna
METAR-TAF:

METAR-TAF

Lotnisko :

Port lotniczy Bamako

Bamako, Mali

Szerokość geograficzna: 12-32N, Długość geograficzna: 007-57W, wysokość: 380 m

Aktualna obserwacja pogody

Raport powstał 57 minut temu, godzina 22:00 UTC
Wiatr 5 kt od północ
Temperatura 30°C
Wilgotność 13%
Ciśnienie 1012 hPa
Widzialność 10 km lub więcej
Brak chmur poniżej 1500 m i brak chmur cumulonimbus

METAR: GABS 192200Z 35005KT CAVOK 30/M01 Q1012 NOSIG

czas: 22:57 (22:57 UTC)

Prognoza

Raport powstał 5 godziny i 57 minut temu, godzina 17:00 UTC
Prognoza ważna od 19 godzina 18 UTC do 20 godzina 24 UTC
Wiatr 10 kt od północ w porywach dochodzący do 20 kt
Widzialność: 8000 m
Przejściowo
od 20 godzina 06 UTC do 20 godzina 15 UTC
Widzialność: 4000 m
pył

TAF: GABS 191700Z 1918/2024 36010G20KT 8000 NSC TEMPO 2006/2015 4000 DU

Obserwacja i prognoza pogody dla ponad 4000 lotnisk (raport METAR i TAF).

Dostępne stacje oznaczono żółtymi i czerwonymi punktami na mapie.

Najedź kursorem aby zobaczyć nazwę stacji.

Kliknij aby zobaczyć obserwacje i prognozy pogody.

Aby zmienić mapę: kliknij na zielony przycisk z czarnym krzyżykiem, aby powiększyć; na zielony przycisk z myślnikiem, aby pomniejszyć; na zielone strzałki, aby przejść do map sąsiednich.


METAR-TAF: